createdAt,value
2023-04-21T00:01:59.265Z,55.90
2023-04-21T00:04:26.467Z,56.70
2023-04-21T00:06:53.661Z,56.80
2023-04-21T00:09:21.893Z,56.50
2023-04-21T00:11:48.904Z,56.20
2023-04-21T00:14:15.876Z,56.20
2023-04-21T00:16:42.762Z,56.60
2023-04-21T00:19:09.729Z,56.00
2023-04-21T00:21:36.690Z,55.80
2023-04-21T00:24:03.829Z,56.20
2023-04-21T00:26:30.831Z,56.20
2023-04-21T00:28:57.891Z,56.00
2023-04-21T00:31:24.927Z,55.60
2023-04-21T00:33:51.975Z,56.10
2023-04-21T00:36:22.046Z,55.70
2023-04-21T00:38:48.977Z,55.60
2023-04-21T00:41:16.140Z,55.90
2023-04-21T00:44:05.419Z,56.10
2023-04-21T00:46:33.063Z,55.70
2023-04-21T00:49:03.188Z,56.40
2023-04-21T00:51:33.176Z,56.20
2023-04-21T00:54:02.144Z,56.20
2023-04-21T00:56:32.534Z,56.30
2023-04-21T00:59:02.208Z,57.00
2023-04-21T01:01:30.250Z,56.60
2023-04-21T01:04:00.433Z,57.40
2023-04-21T01:06:34.857Z,57.10
2023-04-21T01:09:06.760Z,57.40
2023-04-21T01:11:36.621Z,57.70
2023-04-21T01:14:03.721Z,57.70
2023-04-21T01:16:32.905Z,57.80
2023-04-21T01:19:01.166Z,58.00
2023-04-21T01:21:29.046Z,58.10
2023-04-21T01:23:56.021Z,58.00
2023-04-21T01:26:23.593Z,58.20
2023-04-21T01:28:50.702Z,57.80
2023-04-21T01:31:18.407Z,58.30
2023-04-21T01:33:45.670Z,58.00
2023-04-21T01:36:12.976Z,58.70
2023-04-21T01:38:41.382Z,58.30
2023-04-21T01:41:09.273Z,58.60
2023-04-21T01:43:37.211Z,58.90
2023-04-21T01:46:06.035Z,58.90
2023-04-21T01:48:33.110Z,59.20
2023-04-21T01:51:00.035Z,59.20
2023-04-21T01:53:27.139Z,59.00
2023-04-21T01:55:54.128Z,59.90
2023-04-21T01:58:22.003Z,59.30
2023-04-21T02:00:48.988Z,59.30
2023-04-21T02:03:16.215Z,59.50
2023-04-21T02:05:46.047Z,59.20
2023-04-21T02:08:13.052Z,59.40
2023-04-21T02:10:42.299Z,59.60
2023-04-21T02:13:12.406Z,59.40
2023-04-21T02:15:39.571Z,59.80
2023-04-21T02:18:08.365Z,59.60
2023-04-21T02:20:35.458Z,59.80
2023-04-21T02:23:02.438Z,59.80
2023-04-21T02:25:30.194Z,59.90
2023-04-21T02:27:57.175Z,59.90
2023-04-21T02:30:27.523Z,59.80
2023-04-21T02:32:54.549Z,59.60
2023-04-21T02:35:21.664Z,60.40
2023-04-21T02:37:50.778Z,59.90
2023-04-21T02:40:17.777Z,60.30
2023-04-21T02:42:44.793Z,60.50
2023-04-21T02:45:11.790Z,60.40
2023-04-21T02:47:38.776Z,60.40
2023-04-21T02:50:06.696Z,60.50
2023-04-21T02:52:38.049Z,60.10
2023-04-21T02:55:05.474Z,60.60
2023-04-21T02:57:32.403Z,60.40
2023-04-21T03:00:00.399Z,60.30
2023-04-21T03:02:27.721Z,60.60
2023-04-21T03:04:54.899Z,61.00
2023-04-21T03:07:21.861Z,60.80
2023-04-21T03:09:50.662Z,60.90
2023-04-21T03:12:17.575Z,60.80
2023-04-21T03:14:44.852Z,60.70
2023-04-21T03:17:11.811Z,60.50
2023-04-21T03:19:38.772Z,60.70
2023-04-21T03:22:06.488Z,60.70
2023-04-21T03:24:33.612Z,60.60
2023-04-21T03:27:01.826Z,60.70
2023-04-21T03:29:28.949Z,60.80
2023-04-21T03:31:55.876Z,60.60
2023-04-21T03:34:23.675Z,61.40
2023-04-21T03:36:50.854Z,61.40
2023-04-21T03:39:20.594Z,61.80
2023-04-21T03:41:49.556Z,61.70
2023-04-21T03:44:16.576Z,61.70
2023-04-21T03:46:43.653Z,61.70
2023-04-21T03:49:10.771Z,61.50
2023-04-21T03:51:37.709Z,61.50
2023-04-21T03:54:04.811Z,61.60
2023-04-21T03:56:31.838Z,61.20
2023-04-21T03:58:58.734Z,61.10
2023-04-21T04:01:25.768Z,61.50
2023-04-21T04:03:52.914Z,61.50
2023-04-21T04:06:19.968Z,61.10
2023-04-21T04:08:47.141Z,61.10
2023-04-21T04:11:14.080Z,60.40
2023-04-21T04:13:41.281Z,61.10
2023-04-21T04:16:08.446Z,61.10
2023-04-21T04:18:35.437Z,60.80
2023-04-21T04:21:07.424Z,61.20
2023-04-21T04:23:34.962Z,61.20
2023-04-21T04:26:04.575Z,61.00
2023-04-21T04:28:32.032Z,61.30
2023-04-21T04:31:00.770Z,61.40
2023-04-21T04:33:27.784Z,61.20
2023-04-21T04:35:54.828Z,61.00
2023-04-21T04:38:23.043Z,61.70
2023-04-21T04:40:58.890Z,62.00
2023-04-21T04:43:25.852Z,61.80
2023-04-21T04:45:53.346Z,62.20
2023-04-21T04:48:20.449Z,61.90
2023-04-21T04:50:47.426Z,62.40
2023-04-21T04:53:14.371Z,62.20
2023-04-21T04:55:41.313Z,62.00
2023-04-21T04:58:08.497Z,62.30
2023-04-21T05:00:37.035Z,62.00
2023-04-21T05:03:04.250Z,62.80
2023-04-21T05:05:31.387Z,62.70
2023-04-21T05:07:58.357Z,62.80
2023-04-21T05:10:25.326Z,62.60
2023-04-21T05:12:52.382Z,62.40
2023-04-21T05:15:19.378Z,62.70
2023-04-21T05:17:48.937Z,62.90
2023-04-21T05:20:15.901Z,61.70
2023-04-21T05:22:42.849Z,62.40
2023-04-21T05:25:15.138Z,62.50
2023-04-21T05:27:43.241Z,62.30
2023-04-21T05:30:10.786Z,62.30
2023-04-21T05:32:37.836Z,62.80
2023-04-21T05:35:05.227Z,62.80
2023-04-21T05:37:32.200Z,63.20
2023-04-21T05:39:59.181Z,62.70
2023-04-21T05:42:26.351Z,62.60
2023-04-21T05:44:54.202Z,62.90
2023-04-21T05:47:21.247Z,62.60
2023-04-21T05:49:52.333Z,62.20
2023-04-21T05:52:21.296Z,61.80
2023-04-21T05:54:48.384Z,61.90
2023-04-21T05:57:16.712Z,62.30
2023-04-21T05:59:43.917Z,61.70
2023-04-21T06:02:11.936Z,61.70
2023-04-21T06:04:39.143Z,62.10
2023-04-21T06:07:13.028Z,62.00
2023-04-21T06:09:41.252Z,62.50
2023-04-21T06:12:08.308Z,63.10
2023-04-21T06:14:35.403Z,62.90
2023-04-21T06:17:02.367Z,62.40
2023-04-21T06:19:29.295Z,62.30
2023-04-21T06:21:57.611Z,61.40
2023-04-21T06:24:25.688Z,61.50
2023-04-21T06:26:53.496Z,62.10
2023-04-21T06:29:21.054Z,61.50
2023-04-21T06:31:48.387Z,61.20
2023-04-21T06:34:16.023Z,61.70
2023-04-21T06:36:43.120Z,61.30
2023-04-21T06:39:10.062Z,61.30
2023-04-21T06:41:37.101Z,60.70
2023-04-21T06:44:04.034Z,60.20
2023-04-21T06:46:31.443Z,60.70
2023-04-21T06:48:58.426Z,60.50
2023-04-21T06:51:25.356Z,60.40
2023-04-21T06:53:52.509Z,59.90
2023-04-21T06:56:19.441Z,59.80
2023-04-21T06:58:47.098Z,59.20
2023-04-21T07:01:14.305Z,59.40
2023-04-21T07:03:41.416Z,59.40
2023-04-21T07:06:08.576Z,58.40
2023-04-21T07:08:35.712Z,59.00
2023-04-21T07:11:02.844Z,59.50
2023-04-21T07:13:30.404Z,59.10
2023-04-21T07:15:57.491Z,58.90
2023-04-21T07:18:24.641Z,59.00
2023-04-21T07:20:51.627Z,58.50
2023-04-21T07:23:18.913Z,58.40
2023-04-21T07:25:45.864Z,58.30
2023-04-21T07:28:15.339Z,58.20
2023-04-21T07:30:42.466Z,58.40
2023-04-21T07:33:09.583Z,57.60
2023-04-21T07:35:36.594Z,57.70
2023-04-21T07:38:03.851Z,57.20
2023-04-21T07:40:31.243Z,57.70
2023-04-21T07:42:58.348Z,57.20
2023-04-21T07:45:26.457Z,58.10
2023-04-21T07:47:53.552Z,57.80
2023-04-21T07:50:20.503Z,58.00
2023-04-21T07:52:48.199Z,57.30
2023-04-21T07:55:15.265Z,57.80
2023-04-21T07:57:42.365Z,57.30
2023-04-21T08:00:10.431Z,57.30
2023-04-21T08:02:40.817Z,57.40
2023-04-21T08:05:08.724Z,57.20
2023-04-21T08:07:35.964Z,56.70
2023-04-21T08:10:03.030Z,56.50
2023-04-21T08:12:30.177Z,55.90
2023-04-21T08:14:57.138Z,56.00
2023-04-21T08:17:24.536Z,56.40
2023-04-21T08:19:52.185Z,56.20
2023-04-21T08:22:19.167Z,55.30
2023-04-21T08:24:46.471Z,56.50
2023-04-21T08:27:13.443Z,56.30
2023-04-21T08:29:40.539Z,55.70
2023-04-21T08:32:07.706Z,56.40
2023-04-21T08:34:35.225Z,55.70
2023-04-21T08:37:02.267Z,55.40
2023-04-21T08:39:29.611Z,54.60
2023-04-21T08:41:57.953Z,54.30
2023-04-21T08:44:25.226Z,53.10
2023-04-21T08:46:53.565Z,53.40
2023-04-21T08:49:21.838Z,53.20
2023-04-21T08:51:48.963Z,53.10
2023-04-21T08:54:16.086Z,53.10
2023-04-21T08:56:43.081Z,53.30
2023-04-21T08:59:10.032Z,53.10
2023-04-21T09:02:10.638Z,53.20
2023-04-21T09:04:40.391Z,52.90
2023-04-21T09:07:08.839Z,52.10
2023-04-21T09:09:55.306Z,52.10
2023-04-21T09:12:24.789Z,51.20
2023-04-21T09:14:51.807Z,52.20
2023-04-21T09:17:21.734Z,52.30
2023-04-21T09:19:48.816Z,52.40
2023-04-21T09:22:17.782Z,51.30
2023-04-21T09:24:49.225Z,50.30
2023-04-21T09:27:19.360Z,50.30
2023-04-21T09:29:50.799Z,49.50
2023-04-21T09:32:19.783Z,49.90
2023-04-21T09:34:47.351Z,51.10
2023-04-21T09:37:18.032Z,49.80
2023-04-21T09:40:03.317Z,50.00
2023-04-21T09:42:32.819Z,50.30
2023-04-21T09:47:40.123Z,49.40
2023-04-21T09:50:12.977Z,49.90
2023-04-21T09:52:43.954Z,48.70
2023-04-21T09:55:14.741Z,48.70
2023-04-21T09:57:43.912Z,49.20
2023-04-21T10:00:12.743Z,49.10
2023-04-21T10:02:51.258Z,48.10
2023-04-21T10:05:18.390Z,47.50
2023-04-21T10:07:46.331Z,47.10
2023-04-21T10:10:16.511Z,46.50
2023-04-21T10:12:45.443Z,46.70
2023-04-21T10:15:32.320Z,46.80
2023-04-21T10:18:19.542Z,46.80
2023-04-21T10:20:53.775Z,47.60
2023-04-21T10:23:27.865Z,47.60
2023-04-21T10:26:01.291Z,47.70
2023-04-21T10:28:48.497Z,46.60
2023-04-21T10:31:37.611Z,46.60
2023-04-21T10:34:13.182Z,46.70
2023-04-21T10:36:48.772Z,47.30
2023-04-21T10:39:36.063Z,45.80
2023-04-21T10:42:20.758Z,47.00
2023-04-21T10:45:09.092Z,47.60
2023-04-21T10:47:49.552Z,47.20
2023-04-21T10:50:26.079Z,47.30
2023-04-21T10:52:55.878Z,45.20
2023-04-21T10:55:25.830Z,45.60
2023-04-21T10:57:53.021Z,46.60
2023-04-21T11:00:23.505Z,46.40
2023-04-21T11:02:55.050Z,46.10
2023-04-21T11:05:28.538Z,45.90
2023-04-21T11:08:06.513Z,46.40
2023-04-21T11:10:53.291Z,46.80
2023-04-21T11:13:26.456Z,46.20
2023-04-21T11:16:06.120Z,47.30
2023-04-21T11:18:41.927Z,47.50
2023-04-21T11:21:12.096Z,46.80
2023-04-21T11:23:48.001Z,47.00
2023-04-21T11:26:15.753Z,47.10
2023-04-21T11:28:42.759Z,46.60
2023-04-21T11:31:10.669Z,45.90
2023-04-21T11:33:40.661Z,45.30
2023-04-21T11:36:07.892Z,46.50
2023-04-21T11:38:42.032Z,46.30
2023-04-21T11:41:10.703Z,46.20
2023-04-21T11:43:38.580Z,45.40
2023-04-21T11:46:18.968Z,44.70
2023-04-21T11:48:46.637Z,44.60
2023-04-21T11:51:22.124Z,44.90
2023-04-21T11:53:49.271Z,44.50
2023-04-21T11:56:22.012Z,43.90
2023-04-21T11:58:52.837Z,44.30
2023-04-21T12:01:20.901Z,44.90
2023-04-21T12:03:55.871Z,44.30
2023-04-21T12:06:24.807Z,43.10
2023-04-21T12:08:57.629Z,45.00
2023-04-21T12:11:25.509Z,43.70
2023-04-21T12:13:52.466Z,45.00
2023-04-21T12:16:19.973Z,43.80
2023-04-21T12:18:49.323Z,45.40
2023-04-21T12:21:16.807Z,44.20
2023-04-21T12:23:44.798Z,43.70
2023-04-21T12:26:12.207Z,43.80
2023-04-21T12:28:39.840Z,43.60
2023-04-21T12:31:07.088Z,42.80
2023-04-21T12:33:34.152Z,44.40
2023-04-21T12:36:01.231Z,43.00
2023-04-21T12:38:28.355Z,42.40
2023-04-21T12:40:55.393Z,43.20
2023-04-21T12:43:22.742Z,43.30
2023-04-21T12:45:50.603Z,44.60
2023-04-21T12:48:17.804Z,43.60
2023-04-21T12:50:44.741Z,46.00
2023-04-21T12:53:11.663Z,41.80
2023-04-21T12:55:39.140Z,43.30
2023-04-21T12:58:06.132Z,44.60
2023-04-21T13:00:35.831Z,44.50
2023-04-21T13:03:03.323Z,43.50
2023-04-21T13:05:30.358Z,43.40
2023-04-21T13:07:57.927Z,42.30
2023-04-21T13:10:25.645Z,41.80
2023-04-21T13:12:52.592Z,43.80
2023-04-21T13:15:19.534Z,43.30
2023-04-21T13:17:47.080Z,42.50
2023-04-21T13:20:14.099Z,41.50
2023-04-21T13:22:41.238Z,42.60
2023-04-21T13:25:08.621Z,44.50
2023-04-21T13:27:38.216Z,42.60
2023-04-21T13:30:07.979Z,42.50
2023-04-21T13:32:35.686Z,41.50
2023-04-21T13:35:04.957Z,42.10
2023-04-21T13:37:32.019Z,43.80
2023-04-21T13:39:58.932Z,43.60
2023-04-21T13:42:25.941Z,44.10
2023-04-21T13:44:53.629Z,42.90
2023-04-21T13:47:20.958Z,41.20
2023-04-21T13:49:48.638Z,41.50
2023-04-21T13:52:15.824Z,41.60
2023-04-21T13:54:42.743Z,44.30
2023-04-21T13:57:09.934Z,42.00
2023-04-21T13:59:36.924Z,44.40
2023-04-21T14:02:04.117Z,45.20
2023-04-21T14:04:31.427Z,44.30
2023-04-21T14:06:58.614Z,43.20
2023-04-21T14:09:25.835Z,42.50
2023-04-21T14:11:53.073Z,43.20
2023-04-21T14:14:31.360Z,42.10
2023-04-21T14:17:04.693Z,42.40
2023-04-21T14:19:32.626Z,42.10
2023-04-21T14:21:59.796Z,41.80
2023-04-21T14:24:28.929Z,42.70
2023-04-21T14:26:56.493Z,43.00
2023-04-21T14:29:23.651Z,41.60
2023-04-21T14:31:51.361Z,41.40
2023-04-21T14:34:21.004Z,42.00
2023-04-21T14:36:50.089Z,41.90
2023-04-21T14:39:17.114Z,41.50
2023-04-21T14:41:44.250Z,41.60
2023-04-21T14:44:11.311Z,41.10
2023-04-21T14:46:38.886Z,41.00
2023-04-21T14:49:06.094Z,40.90
2023-04-21T14:51:33.534Z,41.50
2023-04-21T14:54:00.503Z,41.30
2023-04-21T14:56:27.712Z,41.40
2023-04-21T14:58:54.797Z,41.30
2023-04-21T15:01:24.518Z,41.60
2023-04-21T15:03:53.252Z,41.30
2023-04-21T15:06:21.030Z,41.60
2023-04-21T15:08:48.162Z,41.50
2023-04-21T15:11:15.271Z,41.50
2023-04-21T15:13:42.552Z,42.20
2023-04-21T15:16:09.570Z,42.20
2023-04-21T15:18:36.559Z,42.70
2023-04-21T15:21:03.656Z,42.30
2023-04-21T15:23:30.882Z,42.00
2023-04-21T15:25:58.071Z,42.30
2023-04-21T15:28:25.219Z,42.30
2023-04-21T15:30:52.279Z,42.70
2023-04-21T15:33:19.563Z,42.70
2023-04-21T15:35:48.415Z,42.80
2023-04-21T15:38:15.500Z,42.30
2023-04-21T15:40:57.095Z,42.10
2023-04-21T15:43:27.489Z,42.80
2023-04-21T15:45:54.509Z,42.20
2023-04-21T15:48:22.334Z,43.10
2023-04-21T15:50:49.361Z,42.50
2023-04-21T15:53:19.328Z,42.60
2023-04-21T15:55:46.976Z,42.70
2023-04-21T15:58:13.990Z,42.70
2023-04-21T16:00:44.155Z,42.80
2023-04-21T16:03:11.378Z,43.20
2023-04-21T16:05:38.774Z,43.10
2023-04-21T16:08:05.868Z,43.20
2023-04-21T16:10:33.056Z,43.70
2023-04-21T16:13:00.596Z,42.80
2023-04-21T16:15:27.752Z,44.70
2023-04-21T16:17:54.973Z,45.70
2023-04-21T16:20:22.050Z,45.40
2023-04-21T16:22:50.764Z,45.20
2023-04-21T16:25:19.100Z,45.50
2023-04-21T16:27:46.411Z,45.00
2023-04-21T16:30:13.444Z,44.60
2023-04-21T16:32:40.517Z,44.10
2023-04-21T16:35:08.287Z,44.10
2023-04-21T16:37:37.147Z,43.90
2023-04-21T16:40:06.317Z,43.30
2023-04-21T16:42:33.883Z,42.80
2023-04-21T16:45:03.488Z,42.70
2023-04-21T16:47:32.569Z,42.90
2023-04-21T16:50:00.020Z,43.00
2023-04-21T16:52:27.374Z,43.00
2023-04-21T16:54:54.339Z,43.00
2023-04-21T16:57:23.832Z,43.20
2023-04-21T16:59:51.877Z,43.20
2023-04-21T17:02:19.646Z,42.90
2023-04-21T17:04:47.352Z,42.90
2023-04-21T17:07:14.980Z,43.30
2023-04-21T17:09:42.137Z,43.60
2023-04-21T17:12:09.613Z,44.10
2023-04-21T17:14:36.998Z,44.40
2023-04-21T17:17:04.292Z,44.80
2023-04-21T17:19:31.494Z,45.40
2023-04-21T17:21:58.590Z,45.50
2023-04-21T17:24:26.029Z,47.30
2023-04-21T17:26:52.961Z,49.60
2023-04-21T17:29:20.152Z,51.10
2023-04-21T17:31:47.210Z,51.70
2023-04-21T17:34:14.238Z,52.70
2023-04-21T17:36:41.587Z,53.30
2023-04-21T17:39:08.657Z,54.50
2023-04-21T17:41:36.270Z,55.50
2023-04-21T17:44:03.511Z,56.10
2023-04-21T17:46:30.821Z,56.00
2023-04-21T17:48:57.822Z,56.70
2023-04-21T17:51:24.979Z,57.50
2023-04-21T17:53:52.412Z,57.70
2023-04-21T17:56:21.050Z,58.10
2023-04-21T17:58:48.608Z,59.30
2023-04-21T18:01:15.849Z,58.80
2023-04-21T18:03:43.724Z,58.80
2023-04-21T18:06:11.719Z,58.40
2023-04-21T18:08:38.753Z,58.10
2023-04-21T18:11:06.288Z,57.90
2023-04-21T18:13:44.736Z,57.90
2023-04-21T18:16:11.881Z,58.00
2023-04-21T18:18:39.521Z,57.60
2023-04-21T18:21:06.641Z,57.30
2023-04-21T18:23:34.759Z,57.20
2023-04-21T18:26:02.085Z,57.50
2023-04-21T18:28:29.565Z,58.20
2023-04-21T18:30:56.637Z,58.30
2023-04-21T18:33:23.713Z,58.00
2023-04-21T18:35:50.881Z,58.60
2023-04-21T18:38:17.836Z,58.60
2023-04-21T18:40:44.928Z,59.00
2023-04-21T18:43:11.874Z,59.50
2023-04-21T18:45:39.233Z,60.40
2023-04-21T18:48:06.502Z,60.50
2023-04-21T18:50:35.249Z,60.90
2023-04-21T18:53:04.588Z,61.00
2023-04-21T18:55:33.502Z,60.10
2023-04-21T18:58:00.539Z,60.20
2023-04-21T19:00:27.692Z,60.50
2023-04-21T19:02:54.985Z,60.40
2023-04-21T19:05:22.223Z,60.50
2023-04-21T19:07:49.192Z,60.60
2023-04-21T19:10:16.286Z,60.30
2023-04-21T19:12:43.692Z,60.10
2023-04-21T19:15:11.842Z,59.90
2023-04-21T19:17:39.849Z,60.30
2023-04-21T19:20:07.663Z,60.60
2023-04-21T19:22:36.175Z,60.70
2023-04-21T19:25:03.881Z,60.30
2023-04-21T19:27:31.006Z,60.30
2023-04-21T19:29:58.675Z,60.70
2023-04-21T19:32:26.106Z,60.60
2023-04-21T19:34:53.269Z,60.40
2023-04-21T19:37:21.078Z,60.00
2023-04-21T19:39:48.034Z,60.20
2023-04-21T19:42:15.399Z,60.70
2023-04-21T19:44:42.283Z,59.90
2023-04-21T19:47:09.317Z,59.90
2023-04-21T19:49:36.520Z,60.60
2023-04-21T19:52:03.508Z,60.70
2023-04-21T19:54:31.044Z,60.60
2023-04-21T19:57:04.495Z,60.60
2023-04-21T19:59:33.575Z,60.60
2023-04-21T20:02:01.143Z,60.70
2023-04-21T20:04:28.201Z,60.70
2023-04-21T20:06:55.244Z,60.90
2023-04-21T20:09:22.319Z,60.80
2023-04-21T20:11:49.890Z,60.80
2023-04-21T20:14:18.140Z,60.60
2023-04-21T20:16:46.468Z,60.60
2023-04-21T20:19:15.105Z,60.90
2023-04-21T20:21:43.872Z,60.80
2023-04-21T20:24:10.801Z,60.70
2023-04-21T20:26:37.850Z,60.70
2023-04-21T20:29:05.157Z,60.70
2023-04-21T20:31:33.318Z,60.60
2023-04-21T20:34:00.469Z,60.30
2023-04-21T20:36:28.437Z,60.40
2023-04-21T20:38:57.181Z,61.30
2023-04-21T20:41:24.204Z,60.40
2023-04-21T20:43:51.322Z,60.30
2023-04-21T20:46:18.573Z,60.50
2023-04-21T20:48:45.775Z,60.40
2023-04-21T20:51:13.610Z,60.40
2023-04-21T20:53:40.597Z,60.00
2023-04-21T20:56:07.824Z,60.30
2023-04-21T20:58:36.153Z,60.60
2023-04-21T21:01:03.477Z,60.70
2023-04-21T21:03:31.007Z,60.60
2023-04-21T21:05:58.147Z,60.50
2023-04-21T21:08:25.681Z,60.70
2023-04-21T21:10:52.695Z,60.60
2023-04-21T21:13:19.656Z,60.40
2023-04-21T21:15:46.873Z,60.40
2023-04-21T21:18:13.885Z,60.30
2023-04-21T21:20:40.905Z,60.40
2023-04-21T21:23:08.009Z,60.50
2023-04-21T21:25:35.259Z,60.50
2023-04-21T21:28:02.225Z,60.70
2023-04-21T21:30:29.215Z,60.70
2023-04-21T21:32:56.309Z,60.70
2023-04-21T21:35:23.810Z,60.70
2023-04-21T21:37:50.771Z,60.90
2023-04-21T21:40:17.821Z,61.00
2023-04-21T21:42:44.756Z,61.00
2023-04-21T21:45:11.993Z,60.90
2023-04-21T21:47:42.851Z,61.00
2023-04-21T21:50:12.579Z,60.70
2023-04-21T21:52:39.658Z,60.60
2023-04-21T21:55:07.205Z,61.50
2023-04-21T21:57:34.689Z,60.70
2023-04-21T22:00:02.213Z,60.90
2023-04-21T22:02:32.176Z,60.60
2023-04-21T22:04:59.665Z,60.30
2023-04-21T22:07:26.787Z,60.30
2023-04-21T22:09:53.809Z,60.10
2023-04-21T22:12:20.868Z,60.50
2023-04-21T22:14:47.794Z,60.60
2023-04-21T22:17:15.938Z,60.80
2023-04-21T22:19:43.136Z,60.70
2023-04-21T22:22:11.514Z,60.60
2023-04-21T22:24:38.807Z,60.90
2023-04-21T22:27:05.758Z,60.70
2023-04-21T22:29:35.827Z,60.60
2023-04-21T22:32:04.225Z,60.20
2023-04-21T22:34:31.185Z,60.20
2023-04-21T22:36:58.168Z,60.10
2023-04-21T22:39:25.727Z,60.00
2023-04-21T22:41:53.191Z,60.60
2023-04-21T22:44:20.571Z,60.90
2023-04-21T22:46:48.425Z,60.40
2023-04-21T22:49:15.400Z,60.30
2023-04-21T22:51:42.426Z,60.50
2023-04-21T22:54:09.392Z,60.60
2023-04-21T22:56:36.775Z,60.50
2023-04-21T22:59:03.757Z,60.90
2023-04-21T23:01:32.062Z,60.90
2023-04-21T23:03:59.193Z,60.90
2023-04-21T23:06:26.666Z,60.90
2023-04-21T23:08:53.695Z,61.00
2023-04-21T23:11:21.041Z,61.30
2023-04-21T23:13:48.044Z,61.10
2023-04-21T23:16:15.124Z,61.00
2023-04-21T23:18:42.133Z,61.20
2023-04-21T23:21:09.104Z,61.10
2023-04-21T23:23:36.232Z,60.90
2023-04-21T23:26:03.151Z,61.10
2023-04-21T23:28:30.162Z,60.90
2023-04-21T23:30:57.447Z,60.70
2023-04-21T23:33:24.430Z,60.70
2023-04-21T23:35:52.425Z,60.80
2023-04-21T23:38:19.409Z,60.60
2023-04-21T23:40:46.626Z,60.90
2023-04-21T23:43:13.593Z,60.50
2023-04-21T23:45:40.768Z,61.40
2023-04-21T23:48:07.828Z,60.80
2023-04-21T23:50:34.919Z,60.80
2023-04-21T23:53:02.167Z,60.50
2023-04-21T23:55:29.248Z,60.70
2023-04-21T23:57:56.158Z,60.90
